Map

Track Data

SID SEASON NUMBER BASIN SUBBASIN NAME ISO_TIME NATURE LAT LON WMO_WIND WMO_PRES WMO_AGENCY TRACK_TYPE DIST2LAND LANDFALL IFLAG USA_AGENCY USA_ATCF_ID USA_LAT USA_LON USA_RECORD USA_STATUS USA_WIND USA_PRES USA_SSHS USA_R34_NE USA_R34_SE USA_R34_SW USA_R34_NW USA_R50_NE USA_R50_SE USA_R50_SW USA_R50_NW USA_R64_NE USA_R64_SE USA_R64_SW USA_R64_NW USA_POCI USA_ROCI USA_RMW USA_EYE TOKYO_LAT TOKYO_LON TOKYO_GRADE TOKYO_WIND TOKYO_PRES TOKYO_R50_DIR TOKYO_R50_LONG TOKYO_R50_SHORT TOKYO_R30_DIR TOKYO_R30_LONG TOKYO_R30_SHORT TOKYO_LAND CMA_LAT CMA_LON CMA_CAT CMA_WIND CMA_PRES HKO_LAT HKO_LON HKO_CAT HKO_WIND HKO_PRES NEWDELHI_LAT NEWDELHI_LON NEWDELHI_GRADE NEWDELHI_WIND NEWDELHI_PRES NEWDELHI_CI NEWDELHI_DP NEWDELHI_POCI REUNION_LAT REUNION_LON REUNION_TYPE REUNION_WIND REUNION_PRES REUNION_TNUM REUNION_CI REUNION_RMW REUNION_R34_NE REUNION_R34_SE REUNION_R34_SW REUNION_R34_NW REUNION_R50_NE REUNION_R50_SE REUNION_R50_SW REUNION_R50_NW REUNION_R64_NE REUNION_R64_SE REUNION_R64_SW REUNION_R64_NW BOM_LAT BOM_LON BOM_TYPE BOM_WIND BOM_PRES BOM_TNUM BOM_CI BOM_RMW BOM_R34_NE BOM_R34_SE BOM_R34_SW BOM_R34_NW BOM_R50_NE BOM_R50_SE BOM_R50_SW BOM_R50_NW BOM_R64_NE BOM_R64_SE BOM_R64_SW BOM_R64_NW BOM_ROCI BOM_POCI BOM_EYE BOM_POS_METHOD BOM_PRES_METHOD NADI_LAT NADI_LON NADI_CAT NADI_WIND NADI_PRES WELLINGTON_LAT WELLINGTON_LON WELLINGTON_WIND WELLINGTON_PRES DS824_LAT DS824_LON DS824_STAGE DS824_WIND DS824_PRES TD9636_LAT TD9636_LON TD9636_STAGE TD9636_WIND TD9636_PRES TD9635_LAT TD9635_LON TD9635_WIND TD9635_PRES TD9635_ROCI NEUMANN_LAT NEUMANN_LON NEUMANN_CLASS NEUMANN_WIND NEUMANN_PRES MLC_LAT MLC_LON MLC_CLASS MLC_WIND MLC_PRES USA_GUST BOM_GUST BOM_GUST_PER REUNION_GUST REUNION_GUST_PER USA_SEAHGT USA_SEARAD_NE USA_SEARAD_SE USA_SEARAD_SW USA_SEARAD_NW STORM_SPEED STORM_DIR
1994306N23313 1994 108 NA NA FLORENCE 1994-11-02 00:00:00 SS 22.7000 -47.0000 30 1011 hurdat_atl main 1993 1957 O_____________ hurdat_atl AL111994 22.7000 -47.0000 SD 30 1011 -2 8 304
1994306N23313 1994 108 NA NA FLORENCE 1994-11-02 03:00:00 SS 22.9353 -47.3747 main 1957 1934 P_____________ AL111994 22.9353 -47.3747 SD 32 1010 -2 8 308
1994306N23313 1994 108 NA NA FLORENCE 1994-11-02 06:00:00 SS 23.2000 -47.7000 35 1010 hurdat_atl main 1934 1919 O_____________ hurdat_atl AL111994 23.2000 -47.7000 SS 35 1010 -2 8 317
1994306N23313 1994 108 NA NA FLORENCE 1994-11-02 09:00:00 SS 23.5073 -47.9502 main 1912 1901 P_____________ AL111994 23.5073 -47.9502 SS 35 1009 -2 8 323
1994306N23313 1994 108 NA NA FLORENCE 1994-11-02 12:00:00 SS 23.8000 -48.2000 35 1009 hurdat_atl main 1901 1877 O_____________ hurdat_atl AL111994 23.8000 -48.2000 SS 35 1009 -2 7 315
1994306N23313 1994 108 NA NA FLORENCE 1994-11-02 15:00:00 SS 24.0223 -48.5127 main 1877 1845 P_____________ AL111994 24.0223 -48.5127 SS 35 1008 -2 8 302
1994306N23313 1994 108 NA NA FLORENCE 1994-11-02 18:00:00 SS 24.2000 -48.9000 35 1008 hurdat_atl main 1845 1804 O_____________ hurdat_atl AL111994 24.2000 -48.9000 SS 35 1008 -2 9 293
1994306N23313 1994 108 NA NA FLORENCE 1994-11-02 21:00:00 SS 24.3652 -49.3925 main 1804 1760 P_____________ AL111994 24.3652 -49.3925 SS 35 1008 -2 10 288
1994306N23313 1994 108 NA NA FLORENCE 1994-11-03 00:00:00 SS 24.5000 -49.9000 35 1008 hurdat_atl main 1760 1726 O_____________ hurdat_atl AL111994 24.5000 -49.9000 SS 35 1008 -2 9 285
1994306N23313 1994 108 NA NA FLORENCE 1994-11-03 03:00:00 SS 24.5998 -50.3227 main 1726 1692 P_____________ AL111994 24.5998 -50.3227 SS 32 1008 -2 8 285
1994306N23313 1994 108 NA NA FLORENCE 1994-11-03 06:00:00 SS 24.7000 -50.7000 30 1008 hurdat_atl main 1692 1668 O_____________ hurdat_atl AL111994 24.7000 -50.7000 SD 30 1008 -2 7 290
1994306N23313 1994 108 NA NA FLORENCE 1994-11-03 09:00:00 SS 24.8423 -51.0501 main 1659 1640 P_____________ AL111994 24.8423 -51.0501 SD 30 1007 -2 7 295
1994306N23313 1994 108 NA NA FLORENCE 1994-11-03 12:00:00 SS 25.0000 -51.4000 30 1006 hurdat_atl main 1640 1608 O_____________ hurdat_atl AL111994 25.0000 -51.4000 SD 30 1006 -2 8 292
1994306N23313 1994 108 NA NA FLORENCE 1994-11-03 15:00:00 SS 25.1202 -51.8227 main 1608 1581 P_____________ AL111994 25.1202 -51.8227 SD 30 1005 -2 8 293
1994306N23313 1994 108 NA NA FLORENCE 1994-11-03 18:00:00 TS 25.3000 -52.2000 30 1005 hurdat_atl main 1581 1574 O_____________ hurdat_atl AL111994 25.3000 -52.2000 TD 30 1005 -1 7 312
1994306N23313 1994 108 NA NA FLORENCE 1994-11-03 21:00:00 TS 25.6198 -52.4375 main 1579 1575 P_____________ AL111994 25.6198 -52.4375 TD 32 1004 -1 8 333
1994306N23313 1994 108 NA NA FLORENCE 1994-11-04 00:00:00 TS 26.0000 -52.6000 35 1004 hurdat_atl main 1583 1580 O_____________ hurdat_atl AL111994 26.0000 -52.6000 TS 35 1004 0 8 340
1994306N23313 1994 108 NA NA FLORENCE 1994-11-04 03:00:00 TS 26.3574 -52.7428 main 1597 1588 P_____________ AL111994 26.3574 -52.7428 TS 37 1003 0 8 339
1994306N23313 1994 108 NA NA FLORENCE 1994-11-04 06:00:00 TS 26.7000 -52.9000 40 1003 hurdat_atl main 1598 1594 O_____________ hurdat_atl AL111994 26.7000 -52.9000 TS 40 1003 0 7 331
1994306N23313 1994 108 NA NA FLORENCE 1994-11-04 09:00:00 TS 26.9925 -53.1277 main 1600 1588 P_____________ AL111994 26.9925 -53.1277 TS 45 1001 0 7 323
1994306N23313 1994 108 NA NA FLORENCE 1994-11-04 12:00:00 TS 27.3000 -53.4000 50 999 hurdat_atl main 1595 1591 O_____________ hurdat_atl AL111994 27.3000 -53.4000 TS 50 999 0 9 324
1994306N23313 1994 108 NA NA FLORENCE 1994-11-04 15:00:00 TS 27.6925 -53.6925 main 1598 1597 P_____________ AL111994 27.6925 -53.6925 TS 57 994 0 10 326
1994306N23313 1994 108 NA NA FLORENCE 1994-11-04 18:00:00 TS 28.1000 -54.0000 65 990 hurdat_atl main 1603 1603 O_____________ hurdat_atl AL111994 28.1000 -54.0000 HU 65 990 1 9 325
1994306N23313 1994 108 NA NA FLORENCE 1994-11-04 21:00:00 TS 28.4650 -54.3076 main 1611 1603 P_____________ AL111994 28.4650 -54.3076 HU 65 988 1 9 323
1994306N23313 1994 108 NA NA FLORENCE 1994-11-05 00:00:00 TS 28.8000 -54.6000 65 987 hurdat_atl main 1612 1612 O_____________ hurdat_atl AL111994 28.8000 -54.6000 HU 65 987 1 8 323
1994306N23313 1994 108 NA NA FLORENCE 1994-11-05 03:00:00 TS 29.1074 -54.8503 main 1615 1615 P_____________ AL111994 29.1074 -54.8503 HU 65 986 1 7 324
1994306N23313 1994 108 NA NA FLORENCE 1994-11-05 06:00:00 TS 29.4000 -55.1000 65 986 hurdat_atl main 1625 1625 O_____________ hurdat_atl AL111994 29.4000 -55.1000 HU 65 986 1 8 321
1994306N23313 1994 108 NA NA FLORENCE 1994-11-05 09:00:00 TS 29.7000 -55.4000 main 1630 1630 P_____________ AL111994 29.7000 -55.4000 HU 67 985 1 8 319
1994306N23313 1994 108 NA NA FLORENCE 1994-11-05 12:00:00 TS 30.0000 -55.7000 70 984 hurdat_atl main 1637 1637 O_____________ hurdat_atl AL111994 30.0000 -55.7000 HU 70 984 1 8 321
1994306N23313 1994 108 NA NA FLORENCE 1994-11-05 15:00:00 TS 30.2924 -55.9578 main 1645 1644 P_____________ AL111994 30.2924 -55.9578 HU 72 982 1 7 324
1994306N23313 1994 108 NA NA FLORENCE 1994-11-05 18:00:00 TS 30.6000 -56.2000 75 981 hurdat_atl main 1644 1602 O_____________ hurdat_atl AL111994 30.6000 -56.2000 HU 75 981 1 8 326
1994306N23313 1994 108 NA NA FLORENCE 1994-11-05 21:00:00 TS 30.9426 -56.4724 main 1602 1553 P_____________ AL111994 30.9426 -56.4724 HU 75 980 1 8 329
1994306N23313 1994 108 NA NA FLORENCE 1994-11-06 00:00:00 TS 31.3000 -56.7000 75 980 hurdat_atl main 1553 1519 O_____________ hurdat_atl AL111994 31.3000 -56.7000 HU 75 980 1 8 337
1994306N23313 1994 108 NA NA FLORENCE 1994-11-06 03:00:00 TS 31.6574 -56.8302 main 1509 1475 P_____________ AL111994 31.6574 -56.8302 HU 75 980 1 7 346
1994306N23313 1994 108 NA NA FLORENCE 1994-11-06 06:00:00 TS 32.0000 -56.9000 75 980 hurdat_atl main 1475 1441 O_____________ hurdat_atl AL111994 32.0000 -56.9000 HU 75 980 1 7 350
1994306N23313 1994 108 NA NA FLORENCE 1994-11-06 09:00:00 TS 32.3225 -56.9725 main 1441 1411 P_____________ AL111994 32.3225 -56.9725 HU 75 980 1 6 352
1994306N23313 1994 108 NA NA FLORENCE 1994-11-06 12:00:00 TS 32.6000 -57.0000 75 980 hurdat_atl main 1411 1392 O_____________ hurdat_atl AL111994 32.6000 -57.0000 HU 75 980 1 5 357
1994306N23313 1994 108 NA NA FLORENCE 1994-11-06 15:00:00 TS 32.8224 -56.9875 main 1392 1377 P_____________ AL111994 32.8224 -56.9875 HU 70 981 1 4 12
1994306N23313 1994 108 NA NA FLORENCE 1994-11-06 18:00:00 TS 33.0000 -56.9000 65 982 hurdat_atl main 1377 1367 O_____________ hurdat_atl AL111994 33.0000 -56.9000 HU 65 982 1 4 34
1994306N23313 1994 108 NA NA FLORENCE 1994-11-06 21:00:00 TS 33.1500 -56.7299 main 1367 1362 P_____________ AL111994 33.1500 -56.7299 HU 65 982 1 5 48
1994306N23313 1994 108 NA NA FLORENCE 1994-11-07 00:00:00 TS 33.3000 -56.5000 65 982 hurdat_atl main 1367 1358 O_____________ hurdat_atl AL111994 33.3000 -56.5000 HU 65 982 1 5 48
1994306N23313 1994 108 NA NA FLORENCE 1994-11-07 03:00:00 TS 33.4695 -56.3092 main 1358 1349 P_____________ AL111994 33.4695 -56.3092 HU 67 981 1 6 46
1994306N23313 1994 108 NA NA FLORENCE 1994-11-07 06:00:00 TS 33.7000 -56.0000 70 981 hurdat_atl main 1351 1331 O_____________ hurdat_atl AL111994 33.7000 -56.0000 HU 70 981 1 9 52
1994306N23313 1994 108 NA NA FLORENCE 1994-11-07 09:00:00 TS 34.0047 -55.4893 main 1334 1311 P_____________ AL111994 34.0047 -55.4893 HU 75 978 1 12 55
1994306N23313 1994 108 NA NA FLORENCE 1994-11-07 12:00:00 TS 34.4000 -54.8000 80 975 hurdat_atl main 1315 1296 O_____________ hurdat_atl AL111994 34.4000 -54.8000 HU 80 975 1 14 54
1994306N23313 1994 108 NA NA FLORENCE 1994-11-07 15:00:00 TS 34.8296 -54.0954 main 1299 1246 P_____________ AL111994 34.8296 -54.0954 HU 85 973 2 17 54
1994306N23313 1994 108 NA NA FLORENCE 1994-11-07 18:00:00 TS 35.4000 -53.1000 90 972 hurdat_atl main 1246 1173 O_____________ hurdat_atl AL111994 35.4000 -53.1000 HU 90 972 2 23 57
1994306N23313 1994 108 NA NA FLORENCE 1994-11-07 21:00:00 TS 36.1079 -51.6970 main 1174 1108 P_____________ AL111994 36.1079 -51.6970 HU 92 972 2 30 58
1994306N23313 1994 108 NA NA FLORENCE 1994-11-08 00:00:00 TS 37.0000 -49.9000 95 972 hurdat_atl main 1101 1049 O_____________ hurdat_atl AL111994 37.0000 -49.9000 HU 95 972 2 36 58
1994306N23313 1994 108 NA NA FLORENCE 1994-11-08 03:00:00 TS 38.0243 -47.8152 main 1053 1027 P_____________ AL111994 38.0243 -47.8152 HU 95 973 2 41 58
1994306N23313 1994 108 NA NA FLORENCE 1994-11-08 06:00:00 TS 39.2000 -45.5000 95 974 hurdat_atl main 1032 1028 O_____________ hurdat_atl AL111994 39.2000 -45.5000 HU 95 974 2 44 56
1994306N23313 1994 108 NA NA FLORENCE 1994-11-08 09:00:00 TS 40.4834 -43.1058 main 1055 1054 P_____________ AL111994 40.4834 -43.1058 HU 90 975 2 45 55
1994306N23313 1994 108 NA NA FLORENCE 1994-11-08 12:00:00 TS 41.8000 -40.7000 85 977 hurdat_atl main 1120 1120 O_____________ hurdat_atl AL111994 41.8000 -40.7000 HU 85 977 2 43 54
1994306N23313 1994 108 NA NA FLORENCE 1994-11-08 15:00:00 TS 43.0360 -38.4231 main 1212 1212 P_____________ AL111994 43.0360 -38.4231 HU 80 979 1 41 54
1994306N23313 1994 108 NA NA FLORENCE 1994-11-08 18:00:00 TS 44.2000 -36.2000 75 982 hurdat_atl main 1314 O_____________ hurdat_atl AL111994 44.2000 -36.2000 HU 75 982 1 40 54

About IBTrACS Database

This database is a web-friendly format of International Best Track Archive for Climate Stewardship (IBTrACS), a global best track data archive curated by NOAA dating back to 1842.

Updated: 2021-10-27